sensor_id;sensor_type;location;lat;lon;timestamp;temperature;humidity
4518;DHT22;2271;49.464;11.070;2023-05-07T00:02:24;16.60;99.90
4518;DHT22;2271;49.464;11.070;2023-05-07T00:04:50;16.70;99.90
4518;DHT22;2271;49.464;11.070;2023-05-07T00:07:17;16.70;99.90
4518;DHT22;2271;49.464;11.070;2023-05-07T00:09:43;16.60;99.90
4518;DHT22;2271;49.464;11.070;2023-05-07T00:12:09;16.70;99.90
4518;DHT22;2271;49.464;11.070;2023-05-07T00:14:35;16.70;99.90
4518;DHT22;2271;49.464;11.070;2023-05-07T00:17:00;16.70;99.90
4518;DHT22;2271;49.464;11.070;2023-05-07T00:19:26;16.70;99.90
4518;DHT22;2271;49.464;11.070;2023-05-07T00:21:52;16.70;99.90
4518;DHT22;2271;49.464;11.070;2023-05-07T00:24:19;16.70;99.90
4518;DHT22;2271;49.464;11.070;2023-05-07T00:26:45;16.60;99.90
4518;DHT22;2271;49.464;11.070;2023-05-07T00:29:10;16.50;99.90
4518;DHT22;2271;49.464;11.070;2023-05-07T00:31:36;16.50;99.90
4518;DHT22;2271;49.464;11.070;2023-05-07T00:34:02;16.60;99.90
4518;DHT22;2271;49.464;11.070;2023-05-07T00:36:27;16.60;99.90
4518;DHT22;2271;49.464;11.070;2023-05-07T00:38:54;16.60;99.90
4518;DHT22;2271;49.464;11.070;2023-05-07T00:41:20;16.50;99.90
4518;DHT22;2271;49.464;11.070;2023-05-07T00:43:46;16.50;99.90
4518;DHT22;2271;49.464;11.070;2023-05-07T00:46:13;16.50;99.90
4518;DHT22;2271;49.464;11.070;2023-05-07T00:48:40;16.50;99.90
4518;DHT22;2271;49.464;11.070;2023-05-07T00:51:05;16.60;99.90
4518;DHT22;2271;49.464;11.070;2023-05-07T00:53:31;16.50;99.90
4518;DHT22;2271;49.464;11.070;2023-05-07T00:55:57;16.60;99.90
4518;DHT22;2271;49.464;11.070;2023-05-07T00:58:23;16.50;99.90
4518;DHT22;2271;49.464;11.070;2023-05-07T01:00:49;16.50;99.90
4518;DHT22;2271;49.464;11.070;2023-05-07T01:03:15;16.40;99.90
4518;DHT22;2271;49.464;11.070;2023-05-07T01:05:41;16.40;99.90
4518;DHT22;2271;49.464;11.070;2023-05-07T01:08:08;16.40;99.90
4518;DHT22;2271;49.464;11.070;2023-05-07T01:10:34;16.50;99.90
4518;DHT22;2271;49.464;11.070;2023-05-07T01:13:00;16.50;99.90
4518;DHT22;2271;49.464;11.070;2023-05-07T01:15:26;16.50;99.90
4518;DHT22;2271;49.464;11.070;2023-05-07T01:17:52;16.50;99.90
4518;DHT22;2271;49.464;11.070;2023-05-07T01:20:18;16.50;99.90
4518;DHT22;2271;49.464;11.070;2023-05-07T01:22:45;16.40;99.90
4518;DHT22;2271;49.464;11.070;2023-05-07T01:25:11;16.40;99.90
4518;DHT22;2271;49.464;11.070;2023-05-07T01:27:37;16.30;99.90
4518;DHT22;2271;49.464;11.070;2023-05-07T01:30:06;16.40;99.90
4518;DHT22;2271;49.464;11.070;2023-05-07T01:32:36;16.40;99.90
4518;DHT22;2271;49.464;11.070;2023-05-07T01:35:05;16.30;99.90
4518;DHT22;2271;49.464;11.070;2023-05-07T01:37:31;16.30;99.90
4518;DHT22;2271;49.464;11.070;2023-05-07T01:39:57;16.40;99.90
4518;DHT22;2271;49.464;11.070;2023-05-07T01:42:23;16.40;99.90
4518;DHT22;2271;49.464;11.070;2023-05-07T01:44:49;16.30;99.90
4518;DHT22;2271;49.464;11.070;2023-05-07T01:47:14;16.30;99.90
4518;DHT22;2271;49.464;11.070;2023-05-07T01:49:42;16.30;99.90
4518;DHT22;2271;49.464;11.070;2023-05-07T01:52:09;16.30;99.90
4518;DHT22;2271;49.464;11.070;2023-05-07T01:54:35;16.20;99.90
4518;DHT22;2271;49.464;11.070;2023-05-07T01:57:01;16.10;99.90
4518;DHT22;2271;49.464;11.070;2023-05-07T01:59:26;16.20;99.90
4518;DHT22;2271;49.464;11.070;2023-05-07T02:01:52;16.10;99.90
4518;DHT22;2271;49.464;11.070;2023-05-07T02:04:18;16.10;99.90
4518;DHT22;2271;49.464;11.070;2023-05-07T02:06:43;16.10;99.90
4518;DHT22;2271;49.464;11.070;2023-05-07T02:09:09;16.20;99.90
4518;DHT22;2271;49.464;11.070;2023-05-07T02:11:34;16.20;99.90
4518;DHT22;2271;49.464;11.070;2023-05-07T02:14:00;16.10;99.90
4518;DHT22;2271;49.464;11.070;2023-05-07T02:16:26;16.10;99.90
4518;DHT22;2271;49.464;11.070;2023-05-07T02:18:51;16.10;99.90
4518;DHT22;2271;49.464;11.070;2023-05-07T02:21:17;16.10;99.90
4518;DHT22;2271;49.464;11.070;2023-05-07T02:23:43;16.10;99.90
4518;DHT22;2271;49.464;11.070;2023-05-07T02:26:08;16.00;99.90
4518;DHT22;2271;49.464;11.070;2023-05-07T02:28:34;16.00;99.90
4518;DHT22;2271;49.464;11.070;2023-05-07T02:31:03;16.00;99.90
4518;DHT22;2271;49.464;11.070;2023-05-07T02:33:29;16.00;99.90
4518;DHT22;2271;49.464;11.070;2023-05-07T02:35:55;16.00;99.90
4518;DHT22;2271;49.464;11.070;2023-05-07T02:38:22;15.90;99.90
4518;DHT22;2271;49.464;11.070;2023-05-07T02:40:48;15.90;99.90
4518;DHT22;2271;49.464;11.070;2023-05-07T02:43:13;15.90;99.90
4518;DHT22;2271;49.464;11.070;2023-05-07T02:45:39;15.80;99.90
4518;DHT22;2271;49.464;11.070;2023-05-07T02:48:05;15.70;99.90
4518;DHT22;2271;49.464;11.070;2023-05-07T02:50:31;15.60;99.90
4518;DHT22;2271;49.464;11.070;2023-05-07T02:52:58;15.70;99.90
4518;DHT22;2271;49.464;11.070;2023-05-07T02:55:23;15.60;99.90
4518;DHT22;2271;49.464;11.070;2023-05-07T02:57:49;15.70;99.90
4518;DHT22;2271;49.464;11.070;2023-05-07T03:00:17;15.70;99.90
4518;DHT22;2271;49.464;11.070;2023-05-07T03:02:43;15.70;99.90
4518;DHT22;2271;49.464;11.070;2023-05-07T03:05:10;15.70;99.90
4518;DHT22;2271;49.464;11.070;2023-05-07T03:07:36;15.60;99.90
4518;DHT22;2271;49.464;11.070;2023-05-07T03:10:02;15.60;99.90
4518;DHT22;2271;49.464;11.070;2023-05-07T03:12:28;15.60;99.90
4518;DHT22;2271;49.464;11.070;2023-05-07T03:14:54;15.50;99.90
4518;DHT22;2271;49.464;11.070;2023-05-07T03:17:20;15.40;99.90
4518;DHT22;2271;49.464;11.070;2023-05-07T03:19:46;15.50;99.90
4518;DHT22;2271;49.464;11.070;2023-05-07T03:22:11;15.50;99.90
4518;DHT22;2271;49.464;11.070;2023-05-07T03:24:37;15.40;99.90
4518;DHT22;2271;49.464;11.070;2023-05-07T03:27:03;15.50;99.90
4518;DHT22;2271;49.464;11.070;2023-05-07T03:29:28;15.40;99.90
4518;DHT22;2271;49.464;11.070;2023-05-07T03:31:54;15.40;99.90
4518;DHT22;2271;49.464;11.070;2023-05-07T03:34:20;15.40;99.90
4518;DHT22;2271;49.464;11.070;2023-05-07T03:36:48;15.40;99.90
4518;DHT22;2271;49.464;11.070;2023-05-07T03:39:14;15.40;99.90
4518;DHT22;2271;49.464;11.070;2023-05-07T03:41:40;15.30;99.90
4518;DHT22;2271;49.464;11.070;2023-05-07T03:44:05;15.30;99.90
4518;DHT22;2271;49.464;11.070;2023-05-07T03:46:31;15.40;99.90
4518;DHT22;2271;49.464;11.070;2023-05-07T03:48:58;15.40;99.90
4518;DHT22;2271;49.464;11.070;2023-05-07T03:51:24;15.40;99.90
4518;DHT22;2271;49.464;11.070;2023-05-07T03:53:50;15.40;99.90
4518;DHT22;2271;49.464;11.070;2023-05-07T03:56:18;15.40;99.90
4518;DHT22;2271;49.464;11.070;2023-05-07T03:58:44;15.30;99.90
4518;DHT22;2271;49.464;11.070;2023-05-07T04:01:10;15.30;99.90
4518;DHT22;2271;49.464;11.070;2023-05-07T04:03:35;15.30;99.90
4518;DHT22;2271;49.464;11.070;2023-05-07T04:06:01;15.20;99.90
4518;DHT22;2271;49.464;11.070;2023-05-07T04:08:27;15.20;99.90
4518;DHT22;2271;49.464;11.070;2023-05-07T04:10:56;15.30;99.90
4518;DHT22;2271;49.464;11.070;2023-05-07T04:13:22;15.20;99.90
4518;DHT22;2271;49.464;11.070;2023-05-07T04:15:47;15.20;99.90
4518;DHT22;2271;49.464;11.070;2023-05-07T04:18:14;15.20;99.90
4518;DHT22;2271;49.464;11.070;2023-05-07T04:20:40;15.20;99.90
4518;DHT22;2271;49.464;11.070;2023-05-07T04:23:07;15.20;99.90
4518;DHT22;2271;49.464;11.070;2023-05-07T04:25:32;15.20;99.90
4518;DHT22;2271;49.464;11.070;2023-05-07T04:27:58;15.20;99.90
4518;DHT22;2271;49.464;11.070;2023-05-07T04:30:24;15.20;99.90
4518;DHT22;2271;49.464;11.070;2023-05-07T04:32:50;15.20;99.90
4518;DHT22;2271;49.464;11.070;2023-05-07T04:35:15;15.30;99.90
4518;DHT22;2271;49.464;11.070;2023-05-07T04:37:41;15.20;99.90
4518;DHT22;2271;49.464;11.070;2023-05-07T04:40:07;15.20;99.90
4518;DHT22;2271;49.464;11.070;2023-05-07T04:42:33;15.10;99.90
4518;DHT22;2271;49.464;11.070;2023-05-07T04:44:58;15.10;99.90
4518;DHT22;2271;49.464;11.070;2023-05-07T04:47:24;15.10;99.90
4518;DHT22;2271;49.464;11.070;2023-05-07T04:49:49;15.10;99.90
4518;DHT22;2271;49.464;11.070;2023-05-07T04:52:15;15.10;99.90
4518;DHT22;2271;49.464;11.070;2023-05-07T04:54:42;15.10;99.90
4518;DHT22;2271;49.464;11.070;2023-05-07T04:57:07;15.00;99.90
4518;DHT22;2271;49.464;11.070;2023-05-07T04:59:33;15.00;99.90
4518;DHT22;2271;49.464;11.070;2023-05-07T05:01:59;15.00;99.90
4518;DHT22;2271;49.464;11.070;2023-05-07T05:04:24;15.00;99.90
4518;DHT22;2271;49.464;11.070;2023-05-07T05:06:50;14.90;99.90
4518;DHT22;2271;49.464;11.070;2023-05-07T05:09:15;15.00;99.90
4518;DHT22;2271;49.464;11.070;2023-05-07T05:11:41;15.00;99.90
4518;DHT22;2271;49.464;11.070;2023-05-07T05:14:07;15.10;99.90
4518;DHT22;2271;49.464;11.070;2023-05-07T05:16:33;15.30;99.90
4518;DHT22;2271;49.464;11.070;2023-05-07T05:18:59;15.20;99.90
4518;DHT22;2271;49.464;11.070;2023-05-07T05:21:25;15.30;99.90
4518;DHT22;2271;49.464;11.070;2023-05-07T05:23:50;15.40;99.90
4518;DHT22;2271;49.464;11.070;2023-05-07T05:26:17;15.50;99.90
4518;DHT22;2271;49.464;11.070;2023-05-07T05:28:43;15.50;99.90
4518;DHT22;2271;49.464;11.070;2023-05-07T05:31:08;15.70;99.90
4518;DHT22;2271;49.464;11.070;2023-05-07T05:33:34;15.80;99.90
4518;DHT22;2271;49.464;11.070;2023-05-07T05:36:00;15.70;99.90
4518;DHT22;2271;49.464;11.070;2023-05-07T05:38:25;15.80;99.90
4518;DHT22;2271;49.464;11.070;2023-05-07T05:40:51;15.90;99.90
4518;DHT22;2271;49.464;11.070;2023-05-07T05:43:17;15.80;99.90
4518;DHT22;2271;49.464;11.070;2023-05-07T05:45:42;15.90;99.90
4518;DHT22;2271;49.464;11.070;2023-05-07T05:48:08;15.80;99.90
4518;DHT22;2271;49.464;11.070;2023-05-07T05:50:34;15.80;99.90
4518;DHT22;2271;49.464;11.070;2023-05-07T05:53:01;15.80;99.90
4518;DHT22;2271;49.464;11.070;2023-05-07T05:55:27;15.70;99.90
4518;DHT22;2271;49.464;11.070;2023-05-07T05:57:53;15.70;99.90
4518;DHT22;2271;49.464;11.070;2023-05-07T06:00:18;15.80;99.90
4518;DHT22;2271;49.464;11.070;2023-05-07T06:02:47;15.80;99.90
4518;DHT22;2271;49.464;11.070;2023-05-07T06:05:13;15.90;99.90
4518;DHT22;2271;49.464;11.070;2023-05-07T06:07:39;15.90;99.90
4518;DHT22;2271;49.464;11.070;2023-05-07T06:10:05;16.00;99.90
4518;DHT22;2271;49.464;11.070;2023-05-07T06:12:30;15.90;99.90
4518;DHT22;2271;49.464;11.070;2023-05-07T06:14:56;15.90;99.90
4518;DHT22;2271;49.464;11.070;2023-05-07T06:17:22;15.90;99.90
4518;DHT22;2271;49.464;11.070;2023-05-07T06:19:47;15.90;99.90
4518;DHT22;2271;49.464;11.070;2023-05-07T06:22:13;15.90;99.90
4518;DHT22;2271;49.464;11.070;2023-05-07T06:24:39;16.00;99.90
4518;DHT22;2271;49.464;11.070;2023-05-07T06:27:04;16.20;99.90
4518;DHT22;2271;49.464;11.070;2023-05-07T06:29:30;16.20;99.90
4518;DHT22;2271;49.464;11.070;2023-05-07T06:32:09;16.40;99.90
4518;DHT22;2271;49.464;11.070;2023-05-07T06:34:35;16.40;99.90
4518;DHT22;2271;49.464;11.070;2023-05-07T06:37:01;16.30;99.90
4518;DHT22;2271;49.464;11.070;2023-05-07T06:39:26;16.20;99.90
4518;DHT22;2271;49.464;11.070;2023-05-07T06:41:52;16.30;99.90
4518;DHT22;2271;49.464;11.070;2023-05-07T06:44:18;16.20;99.90
4518;DHT22;2271;49.464;11.070;2023-05-07T06:46:44;16.30;99.90
4518;DHT22;2271;49.464;11.070;2023-05-07T06:49:10;16.30;99.90
4518;DHT22;2271;49.464;11.070;2023-05-07T06:51:36;16.30;99.90
4518;DHT22;2271;49.464;11.070;2023-05-07T06:54:02;16.40;99.90
4518;DHT22;2271;49.464;11.070;2023-05-07T06:56:30;16.40;99.90
4518;DHT22;2271;49.464;11.070;2023-05-07T06:58:55;16.40;99.90
4518;DHT22;2271;49.464;11.070;2023-05-07T07:01:21;16.60;99.90
4518;DHT22;2271;49.464;11.070;2023-05-07T07:03:47;16.90;99.90
4518;DHT22;2271;49.464;11.070;2023-05-07T07:06:12;17.10;99.90
4518;DHT22;2271;49.464;11.070;2023-05-07T07:08:38;17.30;99.90
4518;DHT22;2271;49.464;11.070;2023-05-07T07:11:04;17.50;99.90
4518;DHT22;2271;49.464;11.070;2023-05-07T07:13:30;17.50;99.90
4518;DHT22;2271;49.464;11.070;2023-05-07T07:15:56;17.50;99.90
4518;DHT22;2271;49.464;11.070;2023-05-07T07:18:22;17.30;99.90
4518;DHT22;2271;49.464;11.070;2023-05-07T07:20:47;17.30;99.90
4518;DHT22;2271;49.464;11.070;2023-05-07T07:23:13;17.40;99.90
4518;DHT22;2271;49.464;11.070;2023-05-07T07:25:39;17.60;99.90
4518;DHT22;2271;49.464;11.070;2023-05-07T07:28:05;17.90;99.90
4518;DHT22;2271;49.464;11.070;2023-05-07T07:30:31;18.20;99.90
4518;DHT22;2271;49.464;11.070;2023-05-07T07:33:00;18.50;99.90
4518;DHT22;2271;49.464;11.070;2023-05-07T07:35:29;18.90;99.90
4518;DHT22;2271;49.464;11.070;2023-05-07T07:37:55;18.90;99.90
4518;DHT22;2271;49.464;11.070;2023-05-07T07:40:24;19.10;99.90
4518;DHT22;2271;49.464;11.070;2023-05-07T07:42:50;19.00;99.90
4518;DHT22;2271;49.464;11.070;2023-05-07T07:45:16;19.00;99.90
4518;DHT22;2271;49.464;11.070;2023-05-07T07:47:42;18.90;99.90
4518;DHT22;2271;49.464;11.070;2023-05-07T07:50:08;18.40;99.90
4518;DHT22;2271;49.464;11.070;2023-05-07T07:52:34;18.40;99.90
4518;DHT22;2271;49.464;11.070;2023-05-07T07:55:00;18.40;99.90
4518;DHT22;2271;49.464;11.070;2023-05-07T07:57:25;18.50;99.90
4518;DHT22;2271;49.464;11.070;2023-05-07T07:59:51;18.50;99.90
4518;DHT22;2271;49.464;11.070;2023-05-07T08:02:17;18.40;99.90
4518;DHT22;2271;49.464;11.070;2023-05-07T08:04:43;18.40;99.90
4518;DHT22;2271;49.464;11.070;2023-05-07T08:07:10;18.40;99.90
4518;DHT22;2271;49.464;11.070;2023-05-07T08:09:38;18.40;99.90
4518;DHT22;2271;49.464;11.070;2023-05-07T08:12:05;18.30;99.90
4518;DHT22;2271;49.464;11.070;2023-05-07T08:14:31;18.50;99.90
4518;DHT22;2271;49.464;11.070;2023-05-07T08:16:56;18.70;99.90
4518;DHT22;2271;49.464;11.070;2023-05-07T08:19:22;18.80;99.90
4518;DHT22;2271;49.464;11.070;2023-05-07T08:21:48;18.90;99.90
4518;DHT22;2271;49.464;11.070;2023-05-07T08:24:14;19.00;99.90
4518;DHT22;2271;49.464;11.070;2023-05-07T08:26:40;19.00;99.90
4518;DHT22;2271;49.464;11.070;2023-05-07T08:29:06;19.10;99.90
4518;DHT22;2271;49.464;11.070;2023-05-07T08:31:32;19.10;99.90
4518;DHT22;2271;49.464;11.070;2023-05-07T08:33:58;19.20;99.90
4518;DHT22;2271;49.464;11.070;2023-05-07T08:36:24;19.40;99.90
4518;DHT22;2271;49.464;11.070;2023-05-07T08:38:51;19.60;99.90
4518;DHT22;2271;49.464;11.070;2023-05-07T08:41:17;19.80;99.90
4518;DHT22;2271;49.464;11.070;2023-05-07T08:43:49;20.00;99.90
4518;DHT22;2271;49.464;11.070;2023-05-07T08:46:20;20.40;99.90
4518;DHT22;2271;49.464;11.070;2023-05-07T08:48:50;20.80;99.90
4518;DHT22;2271;49.464;11.070;2023-05-07T08:51:18;20.80;99.90
4518;DHT22;2271;49.464;11.070;2023-05-07T08:53:44;20.90;99.90
4518;DHT22;2271;49.464;11.070;2023-05-07T08:56:10;21.00;99.90
4518;DHT22;2271;49.464;11.070;2023-05-07T08:58:36;21.00;99.90
4518;DHT22;2271;49.464;11.070;2023-05-07T09:01:28;20.90;99.90
4518;DHT22;2271;49.464;11.070;2023-05-07T09:03:55;21.00;99.90
4518;DHT22;2271;49.464;11.070;2023-05-07T09:06:20;21.20;99.90
4518;DHT22;2271;49.464;11.070;2023-05-07T09:08:51;21.30;99.90
4518;DHT22;2271;49.464;11.070;2023-05-07T09:11:20;21.40;99.90
4518;DHT22;2271;49.464;11.070;2023-05-07T09:13:46;21.30;99.90
4518;DHT22;2271;49.464;11.070;2023-05-07T09:16:12;21.30;99.90
4518;DHT22;2271;49.464;11.070;2023-05-07T09:18:43;21.00;99.90
4518;DHT22;2271;49.464;11.070;2023-05-07T09:21:10;21.00;99.90
4518;DHT22;2271;49.464;11.070;2023-05-07T09:23:36;21.00;99.90
4518;DHT22;2271;49.464;11.070;2023-05-07T09:26:01;21.10;99.90
4518;DHT22;2271;49.464;11.070;2023-05-07T09:28:28;21.20;99.90
4518;DHT22;2271;49.464;11.070;2023-05-07T09:30:55;21.40;99.90
4518;DHT22;2271;49.464;11.070;2023-05-07T09:33:21;21.30;99.90
4518;DHT22;2271;49.464;11.070;2023-05-07T09:35:51;21.50;99.90
4518;DHT22;2271;49.464;11.070;2023-05-07T09:38:18;21.80;99.90
4518;DHT22;2271;49.464;11.070;2023-05-07T09:40:45;22.10;99.90
4518;DHT22;2271;49.464;11.070;2023-05-07T09:43:11;21.90;99.90
4518;DHT22;2271;49.464;11.070;2023-05-07T09:45:38;22.10;99.90
4518;DHT22;2271;49.464;11.070;2023-05-07T09:48:05;22.30;99.90
4518;DHT22;2271;49.464;11.070;2023-05-07T09:50:48;22.20;99.90
4518;DHT22;2271;49.464;11.070;2023-05-07T09:53:14;22.30;99.90
4518;DHT22;2271;49.464;11.070;2023-05-07T09:55:41;22.40;99.90
4518;DHT22;2271;49.464;11.070;2023-05-07T09:58:07;22.60;99.90
4518;DHT22;2271;49.464;11.070;2023-05-07T10:00:34;22.70;99.90
4518;DHT22;2271;49.464;11.070;2023-05-07T10:03:01;22.80;99.90
4518;DHT22;2271;49.464;11.070;2023-05-07T10:05:28;22.80;99.90
4518;DHT22;2271;49.464;11.070;2023-05-07T10:07:55;23.00;99.90
4518;DHT22;2271;49.464;11.070;2023-05-07T10:10:23;23.10;99.90
4518;DHT22;2271;49.464;11.070;2023-05-07T10:12:50;22.90;99.90
4518;DHT22;2271;49.464;11.070;2023-05-07T10:15:16;22.70;99.90
4518;DHT22;2271;49.464;11.070;2023-05-07T10:17:42;23.00;99.90
4518;DHT22;2271;49.464;11.070;2023-05-07T10:20:08;23.10;99.90
4518;DHT22;2271;49.464;11.070;2023-05-07T10:22:47;23.00;99.90
4518;DHT22;2271;49.464;11.070;2023-05-07T10:25:30;22.50;99.90
4518;DHT22;2271;49.464;11.070;2023-05-07T10:28:08;22.70;99.90
4518;DHT22;2271;49.464;11.070;2023-05-07T10:33:03;23.10;99.90
4518;DHT22;2271;49.464;11.070;2023-05-07T10:35:36;23.10;99.90
4518;DHT22;2271;49.464;11.070;2023-05-07T10:38:04;22.70;99.90
4518;DHT22;2271;49.464;11.070;2023-05-07T10:40:31;22.40;99.90
4518;DHT22;2271;49.464;11.070;2023-05-07T10:42:59;22.30;99.90
4518;DHT22;2271;49.464;11.070;2023-05-07T10:45:26;22.00;99.90
4518;DHT22;2271;49.464;11.070;2023-05-07T10:48:24;21.80;99.90
4518;DHT22;2271;49.464;11.070;2023-05-07T10:51:19;21.70;99.90
4518;DHT22;2271;49.464;11.070;2023-05-07T10:53:46;21.80;99.90
4518;DHT22;2271;49.464;11.070;2023-05-07T10:58:43;22.30;99.90
4518;DHT22;2271;49.464;11.070;2023-05-07T11:01:08;22.60;99.90
4518;DHT22;2271;49.464;11.070;2023-05-07T11:03:35;22.90;99.90
4518;DHT22;2271;49.464;11.070;2023-05-07T11:06:15;23.10;99.90
4518;DHT22;2271;49.464;11.070;2023-05-07T11:11:19;23.40;99.90
4518;DHT22;2271;49.464;11.070;2023-05-07T11:13:46;23.50;99.90
4518;DHT22;2271;49.464;11.070;2023-05-07T11:16:22;23.70;99.90
4518;DHT22;2271;49.464;11.070;2023-05-07T11:18:54;23.90;99.90
4518;DHT22;2271;49.464;11.070;2023-05-07T11:21:36;24.00;99.90
4518;DHT22;2271;49.464;11.070;2023-05-07T11:24:03;24.00;99.90
4518;DHT22;2271;49.464;11.070;2023-05-07T11:26:31;24.00;99.90
4518;DHT22;2271;49.464;11.070;2023-05-07T11:29:14;24.00;99.90
4518;DHT22;2271;49.464;11.070;2023-05-07T11:31:40;23.60;99.90
4518;DHT22;2271;49.464;11.070;2023-05-07T11:34:06;23.50;99.90
4518;DHT22;2271;49.464;11.070;2023-05-07T11:36:33;23.50;99.90
4518;DHT22;2271;49.464;11.070;2023-05-07T11:38:59;23.70;99.90
4518;DHT22;2271;49.464;11.070;2023-05-07T11:41:35;24.00;99.90
4518;DHT22;2271;49.464;11.070;2023-05-07T11:44:02;24.20;99.90
4518;DHT22;2271;49.464;11.070;2023-05-07T11:46:28;24.30;99.90
4518;DHT22;2271;49.464;11.070;2023-05-07T11:48:55;24.20;99.90
4518;DHT22;2271;49.464;11.070;2023-05-07T11:51:23;24.00;99.90
4518;DHT22;2271;49.464;11.070;2023-05-07T11:53:49;23.90;99.90
4518;DHT22;2271;49.464;11.070;2023-05-07T11:56:17;23.90;99.90
4518;DHT22;2271;49.464;11.070;2023-05-07T11:58:44;23.90;99.90
4518;DHT22;2271;49.464;11.070;2023-05-07T12:01:12;23.90;99.90
4518;DHT22;2271;49.464;11.070;2023-05-07T12:03:40;23.80;99.90
4518;DHT22;2271;49.464;11.070;2023-05-07T12:06:12;23.60;99.90
4518;DHT22;2271;49.464;11.070;2023-05-07T12:08:39;23.60;99.90
4518;DHT22;2271;49.464;11.070;2023-05-07T12:11:10;23.80;99.90
4518;DHT22;2271;49.464;11.070;2023-05-07T12:13:37;23.80;99.90
4518;DHT22;2271;49.464;11.070;2023-05-07T12:16:04;23.70;99.90
4518;DHT22;2271;49.464;11.070;2023-05-07T12:18:30;23.60;99.90
4518;DHT22;2271;49.464;11.070;2023-05-07T12:20:56;23.40;99.90
4518;DHT22;2271;49.464;11.070;2023-05-07T12:23:23;23.10;99.90
4518;DHT22;2271;49.464;11.070;2023-05-07T12:25:48;23.00;99.90
4518;DHT22;2271;49.464;11.070;2023-05-07T12:28:15;22.80;99.90
4518;DHT22;2271;49.464;11.070;2023-05-07T12:30:42;22.80;99.90
4518;DHT22;2271;49.464;11.070;2023-05-07T12:33:09;22.80;99.90
4518;DHT22;2271;49.464;11.070;2023-05-07T12:35:40;22.60;99.90
4518;DHT22;2271;49.464;11.070;2023-05-07T12:38:11;22.60;99.90
4518;DHT22;2271;49.464;11.070;2023-05-07T12:40:38;22.50;99.90
4518;DHT22;2271;49.464;11.070;2023-05-07T12:43:04;22.50;99.90
4518;DHT22;2271;49.464;11.070;2023-05-07T12:45:29;22.50;99.90
4518;DHT22;2271;49.464;11.070;2023-05-07T12:47:55;22.50;99.90
4518;DHT22;2271;49.464;11.070;2023-05-07T12:50:21;22.40;99.90
4518;DHT22;2271;49.464;11.070;2023-05-07T12:52:47;22.40;99.90
4518;DHT22;2271;49.464;11.070;2023-05-07T12:55:16;22.40;99.90
4518;DHT22;2271;49.464;11.070;2023-05-07T12:57:45;22.40;99.90
4518;DHT22;2271;49.464;11.070;2023-05-07T13:00:11;22.40;99.90
4518;DHT22;2271;49.464;11.070;2023-05-07T13:02:41;22.40;99.90
4518;DHT22;2271;49.464;11.070;2023-05-07T13:05:10;22.40;99.90
4518;DHT22;2271;49.464;11.070;2023-05-07T13:07:35;22.40;99.90
4518;DHT22;2271;49.464;11.070;2023-05-07T13:10:02;22.40;99.90
4518;DHT22;2271;49.464;11.070;2023-05-07T13:12:28;22.40;99.90
4518;DHT22;2271;49.464;11.070;2023-05-07T13:14:54;22.40;99.90
4518;DHT22;2271;49.464;11.070;2023-05-07T13:17:19;22.40;99.90
4518;DHT22;2271;49.464;11.070;2023-05-07T13:19:45;22.30;99.90
4518;DHT22;2271;49.464;11.070;2023-05-07T13:22:10;22.30;99.90
4518;DHT22;2271;49.464;11.070;2023-05-07T13:24:36;22.30;99.90
4518;DHT22;2271;49.464;11.070;2023-05-07T13:27:02;22.40;99.90
4518;DHT22;2271;49.464;11.070;2023-05-07T13:29:28;22.30;99.90
4518;DHT22;2271;49.464;11.070;2023-05-07T13:31:56;22.30;99.90
4518;DHT22;2271;49.464;11.070;2023-05-07T13:34:22;22.20;99.90
4518;DHT22;2271;49.464;11.070;2023-05-07T13:36:47;22.00;99.90
4518;DHT22;2271;49.464;11.070;2023-05-07T13:39:13;22.10;99.90
4518;DHT22;2271;49.464;11.070;2023-05-07T13:41:38;22.30;99.90
4518;DHT22;2271;49.464;11.070;2023-05-07T13:44:04;22.50;99.90
4518;DHT22;2271;49.464;11.070;2023-05-07T13:46:30;22.60;99.90
4518;DHT22;2271;49.464;11.070;2023-05-07T13:48:56;22.70;99.90
4518;DHT22;2271;49.464;11.070;2023-05-07T13:51:22;22.70;99.90
4518;DHT22;2271;49.464;11.070;2023-05-07T13:53:47;22.70;99.90
4518;DHT22;2271;49.464;11.070;2023-05-07T13:56:14;22.60;99.90
4518;DHT22;2271;49.464;11.070;2023-05-07T13:58:39;22.60;99.90
4518;DHT22;2271;49.464;11.070;2023-05-07T14:01:05;22.50;99.90
4518;DHT22;2271;49.464;11.070;2023-05-07T14:03:31;22.50;99.90
4518;DHT22;2271;49.464;11.070;2023-05-07T14:06:00;22.60;99.90
4518;DHT22;2271;49.464;11.070;2023-05-07T14:08:27;22.70;99.90
4518;DHT22;2271;49.464;11.070;2023-05-07T14:10:53;22.70;99.90
4518;DHT22;2271;49.464;11.070;2023-05-07T14:13:18;22.80;99.90
4518;DHT22;2271;49.464;11.070;2023-05-07T14:15:44;22.80;99.90
4518;DHT22;2271;49.464;11.070;2023-05-07T14:18:14;22.90;99.90
4518;DHT22;2271;49.464;11.070;2023-05-07T14:20:40;23.00;99.90
4518;DHT22;2271;49.464;11.070;2023-05-07T14:23:06;23.00;99.90
4518;DHT22;2271;49.464;11.070;2023-05-07T14:25:32;23.00;99.90
4518;DHT22;2271;49.464;11.070;2023-05-07T14:27:57;22.90;99.90
4518;DHT22;2271;49.464;11.070;2023-05-07T14:30:23;22.90;99.90
4518;DHT22;2271;49.464;11.070;2023-05-07T14:32:52;22.90;99.90
4518;DHT22;2271;49.464;11.070;2023-05-07T14:35:17;22.90;99.90
4518;DHT22;2271;49.464;11.070;2023-05-07T14:37:43;23.00;99.90
4518;DHT22;2271;49.464;11.070;2023-05-07T14:40:09;23.10;99.90
4518;DHT22;2271;49.464;11.070;2023-05-07T14:42:35;23.00;99.90
4518;DHT22;2271;49.464;11.070;2023-05-07T14:45:02;23.00;99.90
4518;DHT22;2271;49.464;11.070;2023-05-07T14:47:27;22.80;99.90
4518;DHT22;2271;49.464;11.070;2023-05-07T14:49:54;22.70;99.90
4518;DHT22;2271;49.464;11.070;2023-05-07T14:52:20;22.60;99.90
4518;DHT22;2271;49.464;11.070;2023-05-07T14:54:45;22.40;99.90
4518;DHT22;2271;49.464;11.070;2023-05-07T14:57:13;22.40;99.90
4518;DHT22;2271;49.464;11.070;2023-05-07T14:59:40;22.30;99.90
4518;DHT22;2271;49.464;11.070;2023-05-07T15:02:06;22.30;99.90
4518;DHT22;2271;49.464;11.070;2023-05-07T15:04:33;22.20;99.90
4518;DHT22;2271;49.464;11.070;2023-05-07T15:06:59;22.10;99.90
4518;DHT22;2271;49.464;11.070;2023-05-07T15:09:25;22.00;99.90
4518;DHT22;2271;49.464;11.070;2023-05-07T15:11:51;22.00;99.90
4518;DHT22;2271;49.464;11.070;2023-05-07T15:14:17;22.00;99.90
4518;DHT22;2271;49.464;11.070;2023-05-07T15:16:43;22.00;99.90
4518;DHT22;2271;49.464;11.070;2023-05-07T15:19:08;22.00;99.90
4518;DHT22;2271;49.464;11.070;2023-05-07T15:21:34;22.00;99.90
4518;DHT22;2271;49.464;11.070;2023-05-07T15:24:01;21.90;99.90
4518;DHT22;2271;49.464;11.070;2023-05-07T15:26:27;21.90;99.90
4518;DHT22;2271;49.464;11.070;2023-05-07T15:28:52;21.90;99.90
4518;DHT22;2271;49.464;11.070;2023-05-07T15:31:18;21.80;99.90
4518;DHT22;2271;49.464;11.070;2023-05-07T15:33:44;21.80;99.90
4518;DHT22;2271;49.464;11.070;2023-05-07T15:36:10;21.80;99.90
4518;DHT22;2271;49.464;11.070;2023-05-07T15:38:36;21.80;99.90
4518;DHT22;2271;49.464;11.070;2023-05-07T15:41:01;21.80;99.90
4518;DHT22;2271;49.464;11.070;2023-05-07T15:43:27;21.80;99.90
4518;DHT22;2271;49.464;11.070;2023-05-07T15:45:53;21.80;99.90
4518;DHT22;2271;49.464;11.070;2023-05-07T15:48:19;21.80;99.90
4518;DHT22;2271;49.464;11.070;2023-05-07T15:50:45;21.70;99.90